KLM320X EHAM-CYYZ
Flight info
| Callsign | KLM320X |
|---|---|
| Flight time | N/A |
| Altitude | 38000 |
| Route | IDRID L980 LAM L179 ICTAM M197 ENHAQ DCT GAJIT DCT BAPHU DCT LESLU/M081F380 DCT SOMAX DCT 49N020W 46N030W 45N040W 44N050W DCT BOBTU DCT JAROM N62C LOMPI/N0477F380 N62C TOPPS DCT YUL DCT LETAK IMEBA9 |
| Aircraft | A333/H-SDE3GHIJ2J3J5M1RVWXY/LB2D1 |
Departure
| Time | 2026-05-04 08:31 |
|---|---|
| Airport | Amsterdam Airport Schiphol (EHAM) |
Arrival
| Time | N/A |
|---|---|
| Airport | Toronto Pearson International Airport (CYYZ) |
| Time | Latitude | Longitude | Altitude | Speed | Heading |
|---|---|---|---|---|---|
| 2026-05-04 07:38 | 52.31027 | 4.76615 | 0 ft | 0 kts | 304° |
| 2026-05-04 08:12 | 52.31017 | 4.76640 | 1 ft | 3 kts | 316° |
| 2026-05-04 08:13 | 52.31002 | 4.76659 | 2 ft | 3 kts | 327° |
| 2026-05-04 08:13 | 52.30986 | 4.76676 | 3 ft | 3 kts | 327° |
| 2026-05-04 08:13 | 52.30970 | 4.76693 | 2 ft | 3 kts | 348° |
| 2026-05-04 08:13 | 52.30954 | 4.76694 | 2 ft | 0 kts | 19° |
| 2026-05-04 08:21 | 52.30956 | 4.76696 | 3 ft | 2 kts | 19° |
| 2026-05-04 08:21 | 52.30969 | 4.76711 | 2 ft | 2 kts | 43° |
| 2026-05-04 08:21 | 52.30990 | 4.76748 | 0 ft | 8 kts | 48° |
| 2026-05-04 08:22 | 52.31037 | 4.76814 | 0 ft | 9 kts | 36° |
| 2026-05-04 08:22 | 52.31078 | 4.76888 | 1 ft | 8 kts | 65° |
| 2026-05-04 08:24 | 52.31050 | 4.77472 | 14 ft | 9 kts | 141° |
| 2026-05-04 08:24 | 52.30999 | 4.77488 | 15 ft | 7 kts | 186° |
| 2026-05-04 08:24 | 52.30955 | 4.77481 | 16 ft | 8 kts | 185° |
| 2026-05-04 08:24 | 52.30887 | 4.77474 | 16 ft | 13 kts | 183° |
| 2026-05-04 08:25 | 52.30793 | 4.77465 | 14 ft | 14 kts | 183° |
| 2026-05-04 08:25 | 52.30711 | 4.77457 | 14 ft | 10 kts | 182° |
| 2026-05-04 08:25 | 52.30649 | 4.77480 | 16 ft | 8 kts | 157° |
| 2026-05-04 08:25 | 52.30595 | 4.77523 | 17 ft | 8 kts | 153° |
| 2026-05-04 08:26 | 52.30549 | 4.77563 | 18 ft | 7 kts | 152° |
| 2026-05-04 08:27 | 52.30399 | 4.77590 | 22 ft | 0 kts | 236° |
| 2026-05-04 08:28 | 52.30398 | 4.77589 | 22 ft | 1 kts | 236° |
| 2026-05-04 08:28 | 52.30313 | 4.77371 | 19 ft | 50 kts | 238° |
| 2026-05-04 08:29 | 52.30038 | 4.76641 | 20 ft | 100 kts | 237° |
| 2026-05-04 08:29 | 52.29583 | 4.75474 | 20 ft | 142 kts | 238° |
| 2026-05-04 08:29 | 52.28985 | 4.73960 | 143 ft | 168 kts | 236° |
| 2026-05-04 08:31 | 52.23699 | 4.62188 | 2397 ft | 235 kts | 251° |
| 2026-05-04 08:33 | 52.19748 | 4.43838 | 6063 ft | 267 kts | 248° |
| 2026-05-04 08:33 | 52.19027 | 4.41034 | 6703 ft | 269 kts | 247° |
| 2026-05-04 08:35 | 52.13647 | 4.20949 | 10612 ft | 303 kts | 246° |
| 2026-05-04 08:35 | 52.12775 | 4.17734 | 10847 ft | 318 kts | 246° |
| 2026-05-04 08:35 | 52.11863 | 4.14375 | 11060 ft | 332 kts | 246° |
| 2026-05-04 08:35 | 52.10915 | 4.10886 | 11321 ft | 344 kts | 246° |
| 2026-05-04 08:37 | 52.04894 | 3.88855 | 14307 ft | 364 kts | 246° |
| 2026-05-04 08:37 | 52.03882 | 3.85166 | 14746 ft | 367 kts | 246° |
| 2026-05-04 08:37 | 52.02839 | 3.81372 | 15216 ft | 369 kts | 246° |
| 2026-05-04 08:38 | 52.01794 | 3.77578 | 15683 ft | 371 kts | 245° |
| 2026-05-04 08:38 | 52.00737 | 3.73746 | 16144 ft | 373 kts | 245° |
| 2026-05-04 08:38 | 51.99674 | 3.69901 | 16602 ft | 375 kts | 245° |
| 2026-05-04 08:40 | 51.92020 | 3.42410 | 19529 ft | 388 kts | 245° |
| 2026-05-04 08:40 | 51.90903 | 3.38422 | 19942 ft | 389 kts | 245° |
| 2026-05-04 08:40 | 51.89782 | 3.34431 | 20323 ft | 390 kts | 245° |
| 2026-05-04 08:41 | 51.88654 | 3.30422 | 20717 ft | 391 kts | 245° |
| 2026-05-04 08:41 | 51.87523 | 3.26410 | 21098 ft | 393 kts | 245° |
| 2026-05-04 08:41 | 51.86401 | 3.22433 | 21470 ft | 394 kts | 245° |
| 2026-05-04 08:41 | 51.85417 | 3.18319 | 21830 ft | 395 kts | 253° |
| 2026-05-04 08:42 | 51.84809 | 3.13975 | 22198 ft | 397 kts | 259° |
| 2026-05-04 08:42 | 51.84387 | 3.09556 | 22559 ft | 398 kts | 261° |
| 2026-05-04 08:42 | 51.84055 | 3.05101 | 22922 ft | 400 kts | 262° |
| 2026-05-04 08:42 | 51.83769 | 3.00616 | 23269 ft | 401 kts | 263° |
| 2026-05-04 08:43 | 51.83500 | 2.96144 | 23608 ft | 403 kts | 263° |
| 2026-05-04 08:43 | 51.83228 | 2.91640 | 23892 ft | 404 kts | 263° |
| 2026-05-04 08:43 | 51.82949 | 2.87138 | 24163 ft | 405 kts | 263° |
| 2026-05-04 08:43 | 51.82658 | 2.82601 | 24435 ft | 407 kts | 262° |
| 2026-05-04 08:44 | 51.82362 | 2.78091 | 24524 ft | 405 kts | 262° |